Time;durP1;ratioP1;P1;durP2;ratioP2;P2;SDS_P1;SDS_P2;PMS_P1;PMS_P2;Temp;Humidity;BMP_temperature;BMP_pressure;BME280_temperature;BME280_humidity;BME280_pressure;Samples;Min_cycle;Max_cycle;Signal;HPM_P1;HPM_P2
2022/12/13 00:00:37;;;;;;;16.77;6.80;;;;;;;;;;5010275;28;20029;-59
2022/12/13 00:03:02;;;;;;;20.00;6.97;;;;;;;;;;5008743;28;20518;-58
2022/12/13 00:05:27;;;;;;;19.43;7.97;;;;;;;;;;5009056;28;20029;-59
2022/12/13 00:07:52;;;;;;;16.60;6.93;;;;;;;;;;5008734;28;20057;-59
2022/12/13 00:10:17;;;;;;;14.93;5.90;;;;;;;;;;5008310;28;20420;-59
2022/12/13 00:12:42;;;;;;;17.80;7.00;;;;;;;;;;5010140;28;20092;-59
2022/12/13 00:15:08;;;;;;;16.33;6.53;;;;;;;;;;5008142;28;20120;-59
2022/12/13 00:17:33;;;;;;;17.30;7.50;;;;;;;;;;5007656;28;20518;-59
2022/12/13 00:19:58;;;;;;;15.87;6.73;;;;;;;;;;5009041;28;20476;-59
2022/12/13 00:22:24;;;;;;;16.40;7.27;;;;;;;;;;5011543;28;20025;-59
2022/12/13 00:24:49;;;;;;;17.77;7.43;;;;;;;;;;5009261;28;20045;-59
2022/12/13 00:27:14;;;;;;;18.67;7.30;;;;;;;;;;5010687;28;20563;-59
2022/12/13 00:29:39;;;;;;;18.63;7.87;;;;;;;;;;5009283;28;20037;-60
2022/12/13 00:32:04;;;;;;;17.40;7.00;;;;;;;;;;5009156;28;20586;-60
2022/12/13 00:34:30;;;;;;;16.67;7.33;;;;;;;;;;5006110;28;20034;-59
2022/12/13 00:36:57;;;;;;;17.00;7.07;;;;;;;;;;5009012;28;20029;-59
2022/12/13 00:39:23;;;;;;;14.50;6.45;;;;;;;;;;5008052;28;20452;-59
2022/12/13 00:41:48;;;;;;;19.90;7.60;;;;;;;;;;5007760;28;20032;-59
2022/12/13 00:44:13;;;;;;;18.30;6.40;;;;;;;;;;5008016;28;20025;-60
2022/12/13 00:46:39;;;;;;;14.75;6.22;;;;;;;;;;5007021;28;20788;-60
2022/12/13 00:49:04;;;;;;;17.27;7.45;;;;;;;;;;5008147;28;20026;-60
2022/12/13 00:51:31;;;;;;;16.20;6.33;;;;;;;;;;5009686;28;20387;-60
2022/12/13 00:53:57;;;;;;;14.55;6.03;;;;;;;;;;5008730;28;20021;-58
2022/12/13 00:56:24;;;;;;;15.52;6.80;;;;;;;;;;5008290;28;20029;-59
2022/12/13 00:58:49;;;;;;;13.23;5.72;;;;;;;;;;5008921;28;20032;-59
2022/12/13 01:01:16;;;;;;;14.38;5.60;;;;;;;;;;5009205;28;20025;-58
2022/12/13 01:03:41;;;;;;;13.88;5.82;;;;;;;;;;5008922;28;20021;-59
2022/12/13 01:06:07;;;;;;;16.05;5.97;;;;;;;;;;5006649;28;20022;-59
2022/12/13 01:08:32;;;;;;;15.90;5.93;;;;;;;;;;5001799;28;20025;-60
2022/12/13 01:10:58;;;;;;;15.97;6.20;;;;;;;;;;5007598;28;20468;-58
2022/12/13 01:13:23;;;;;;;16.90;6.33;;;;;;;;;;5006487;28;20101;-59
2022/12/13 01:15:48;;;;;;;17.00;6.40;;;;;;;;;;5008400;28;20025;-66
2022/12/13 01:18:17;;;;;;;15.93;6.63;;;;;;;;;;5008360;28;20021;-59
2022/12/13 01:20:42;;;;;;;16.70;6.40;;;;;;;;;;5008536;28;20032;-59
2022/12/13 01:23:07;;;;;;;15.00;6.28;;;;;;;;;;5009816;28;20112;-59
2022/12/13 01:25:35;;;;;;;16.43;5.97;;;;;;;;;;5007340;28;20029;-59
2022/12/13 01:28:01;;;;;;;15.05;6.00;;;;;;;;;;4990559;28;20066;-59
2022/12/13 01:30:26;;;;;;;15.30;6.53;;;;;;;;;;5006315;28;20010;-59
2022/12/13 01:32:51;;;;;;;14.17;5.90;;;;;;;;;;5009260;28;20405;-59
2022/12/13 01:35:16;;;;;;;14.20;5.40;;;;;;;;;;5009430;28;20088;-59
2022/12/13 01:37:41;;;;;;;14.60;6.50;;;;;;;;;;5008434;28;20114;-59
2022/12/13 01:40:07;;;;;;;16.42;6.35;;;;;;;;;;5008933;28;20060;-59
2022/12/13 01:42:35;;;;;;;14.55;6.43;;;;;;;;;;5005464;28;20021;-59
2022/12/13 01:45:04;;;;;;;16.52;6.40;;;;;;;;;;5009655;28;20119;-59
2022/12/13 01:47:36;;;;;;;15.23;5.93;;;;;;;;;;5012150;28;20024;-59
2022/12/13 01:50:02;;;;;;;13.77;6.07;;;;;;;;;;5012264;28;20026;-59
2022/12/13 01:52:30;;;;;;;13.60;6.38;;;;;;;;;;5009588;28;20116;-59
2022/12/13 01:54:55;;;;;;;;;;;;;;;;;;5012162;28;20022;-59
2022/12/13 01:57:21;;;;;;;13.35;5.63;;;;;;;;;;5013053;28;19909;-59
2022/12/13 01:59:47;;;;;;;18.88;6.85;;;;;;;;;;5013466;28;20018;-59
2022/12/13 02:02:13;;;;;;;14.88;6.40;;;;;;;;;;5011839;28;20104;-59
2022/12/13 02:04:44;;;;;;;18.27;6.82;;;;;;;;;;5011921;28;20137;-59
2022/12/13 02:07:10;;;;;;;14.52;6.32;;;;;;;;;;5011678;28;20021;-59
2022/12/13 02:09:36;;;;;;;13.57;5.55;;;;;;;;;;5012148;28;20661;-60
2022/12/13 02:12:03;;;;;;;13.57;6.57;;;;;;;;;;5011062;28;20026;-59
2022/12/13 02:14:28;;;;;;;15.93;6.70;;;;;;;;;;5012387;28;20057;-60
2022/12/13 02:17:22;;;;;;;15.77;6.53;;;;;;;;;;5011948;28;20381;-59
2022/12/13 02:20:08;;;;;;;13.60;6.25;;;;;;;;;;4942512;28;20107;-60
2022/12/13 02:22:40;;;;;;;14.57;6.15;;;;;;;;;;5011564;28;20108;-59
2022/12/13 02:25:29;;;;;;;15.30;6.18;;;;;;;;;;5010040;28;20579;-61
2022/12/13 02:27:54;;;;;;;13.90;6.35;;;;;;;;;;5009815;28;20469;-60
2022/12/13 02:30:25;;;;;;;14.60;6.13;;;;;;;;;;5008967;28;20381;-60
2022/12/13 02:33:00;;;;;;;14.52;6.00;;;;;;;;;;5011636;28;20024;-61
2022/12/13 02:35:45;;;;;;;14.23;5.47;;;;;;;;;;5012920;28;20388;-60
2022/12/13 02:38:37;;;;;;;14.07;6.35;;;;;;;;;;5011257;28;20113;-60
2022/12/13 02:41:14;;;;;;;14.40;5.70;;;;;;;;;;4982358;28;20038;-60
2022/12/13 02:44:00;;;;;;;14.57;5.43;;;;;;;;;;5010649;28;20028;-61
2022/12/13 02:46:27;;;;;;;14.63;5.72;;;;;;;;;;5012880;28;20029;-60
2022/12/13 02:48:53;;;;;;;14.65;6.65;;;;;;;;;;5009888;28;20464;-59
2022/12/13 02:51:19;;;;;;;16.00;6.50;;;;;;;;;;5010532;28;20030;-59
2022/12/13 02:53:45;;;;;;;15.95;6.80;;;;;;;;;;5011171;28;20096;-60
2022/12/13 02:56:10;;;;;;;14.35;6.10;;;;;;;;;;5010825;28;20025;-60
2022/12/13 02:58:38;;;;;;;16.20;6.23;;;;;;;;;;5012208;28;20014;-59
2022/12/13 03:01:22;;;;;;;14.65;6.70;;;;;;;;;;5011556;28;20076;-59
2022/12/13 03:04:06;;;;;;;14.52;6.90;;;;;;;;;;5008806;28;20022;-59
2022/12/13 03:06:50;;;;;;;15.35;6.32;;;;;;;;;;5011565;28;20034;-59
2022/12/13 03:09:25;;;;;;;15.60;6.72;;;;;;;;;;5009380;28;20076;-59
2022/12/13 03:15:03;;;;;;;14.50;6.13;;;;;;;;;;4999980;28;20084;-59
2022/12/13 03:17:32;;;;;;;18.80;7.55;;;;;;;;;;5011815;28;20496;-59
2022/12/13 03:19:58;;;;;;;16.05;6.65;;;;;;;;;;5010637;28;20038;-58
2022/12/13 03:22:23;;;;;;;14.15;6.30;;;;;;;;;;5008879;28;20452;-58
2022/12/13 03:24:48;;;;;;;13.43;6.57;;;;;;;;;;5011260;28;20061;-59
2022/12/13 03:27:13;;;;;;;16.95;7.63;;;;;;;;;;5008372;28;20443;-59
2022/12/13 03:29:39;;;;;;;16.63;7.73;;;;;;;;;;5010589;28;20018;-59
2022/12/13 03:32:04;;;;;;;15.43;6.20;;;;;;;;;;5010769;28;20029;-59
2022/12/13 03:34:29;;;;;;;15.13;6.10;;;;;;;;;;5009954;28;20072;-59
2022/12/13 03:36:54;;;;;;;14.10;6.27;;;;;;;;;;5009949;28;20916;-59
2022/12/13 03:39:19;;;;;;;14.47;6.23;;;;;;;;;;5010279;28;20092;-59
2022/12/13 03:41:45;;;;;;;16.27;7.17;;;;;;;;;;5011369;28;20022;-59
2022/12/13 03:44:10;;;;;;;16.85;7.22;;;;;;;;;;5011006;28;20068;-59
2022/12/13 03:46:35;;;;;;;15.73;6.63;;;;;;;;;;5010430;28;20355;-58
2022/12/13 03:49:00;;;;;;;14.83;7.07;;;;;;;;;;5009803;28;20033;-61
2022/12/13 03:51:26;;;;;;;16.33;6.43;;;;;;;;;;5010827;28;20029;-59
2022/12/13 03:53:51;;;;;;;16.17;6.70;;;;;;;;;;5010559;28;20101;-59
2022/12/13 03:56:16;;;;;;;14.73;7.00;;;;;;;;;;5011016;28;20031;-60
2022/12/13 03:58:41;;;;;;;16.37;7.03;;;;;;;;;;5006501;28;20041;-59
2022/12/13 04:01:07;;;;;;;16.70;7.07;;;;;;;;;;5011757;28;20025;-59
2022/12/13 04:03:33;;;;;;;15.30;7.15;;;;;;;;;;5011402;28;20018;-59
2022/12/13 04:05:58;;;;;;;15.63;7.57;;;;;;;;;;5011683;28;20022;-59
2022/12/13 04:08:23;;;;;;;16.08;7.78;;;;;;;;;;5009348;28;20471;-59
2022/12/13 04:10:48;;;;;;;16.40;7.43;;;;;;;;;;5008032;28;20026;-59
2022/12/13 04:13:31;;;;;;;17.30;6.90;;;;;;;;;;5007832;28;20061;-59
2022/12/13 04:15:56;;;;;;;15.07;6.78;;;;;;;;;;5007564;28;20034;-60
2022/12/13 04:18:22;;;;;;;16.80;7.53;;;;;;;;;;5008507;28;20121;-60
2022/12/13 04:20:47;;;;;;;15.65;6.68;;;;;;;;;;5008012;28;20030;-59
2022/12/13 04:23:12;;;;;;;14.80;6.57;;;;;;;;;;5009283;28;20028;-59
2022/12/13 04:25:38;;;;;;;17.43;6.87;;;;;;;;;;5010636;28;20072;-60
2022/12/13 04:28:04;;;;;;;17.15;7.75;;;;;;;;;;5004097;28;20121;-60
2022/12/13 04:30:29;;;;;;;15.93;6.70;;;;;;;;;;5006514;28;20093;-60
2022/12/13 04:32:55;;;;;;;14.37;6.43;;;;;;;;;;5008710;28;20013;-60
2022/12/13 04:35:20;;;;;;;17.92;7.10;;;;;;;;;;5009357;28;20798;-60
2022/12/13 04:37:45;;;;;;;16.07;7.07;;;;;;;;;;5008578;28;20030;-61
2022/12/13 04:40:11;;;;;;;16.17;7.53;;;;;;;;;;5006091;28;20030;-60
2022/12/13 04:42:36;;;;;;;20.20;7.30;;;;;;;;;;5008626;28;20148;-60
2022/12/13 04:45:02;;;;;;;18.85;7.03;;;;;;;;;;5008691;28;20469;-60
2022/12/13 04:47:27;;;;;;;16.67;7.38;;;;;;;;;;5008335;28;20029;-61
2022/12/13 04:49:52;;;;;;;18.47;7.53;;;;;;;;;;5008035;28;20022;-60
2022/12/13 04:52:17;;;;;;;20.15;7.43;;;;;;;;;;5008579;28;20034;-61
2022/12/13 04:54:43;;;;;;;16.87;7.00;;;;;;;;;;5011019;28;20026;-61
2022/12/13 04:57:09;;;;;;;15.98;6.10;;;;;;;;;;5013629;28;20055;-61
2022/12/13 04:59:35;;;;;;;15.40;6.72;;;;;;;;;;5009995;28;20042;-60
2022/12/13 05:02:01;;;;;;;14.10;6.15;;;;;;;;;;5008260;28;20468;-59
2022/12/13 05:04:26;;;;;;;16.23;7.10;;;;;;;;;;5008002;28;20108;-60
2022/12/13 05:06:51;;;;;;;16.58;6.55;;;;;;;;;;5009179;28;20048;-60
2022/12/13 05:09:16;;;;;;;15.70;7.00;;;;;;;;;;5006583;28;20485;-60
2022/12/13 05:11:41;;;;;;;16.37;6.93;;;;;;;;;;5006957;28;20026;-60
2022/12/13 05:14:06;;;;;;;16.27;6.50;;;;;;;;;;5007516;28;20049;-60
2022/12/13 05:16:32;;;;;;;14.93;6.70;;;;;;;;;;5008513;28;20033;-60
2022/12/13 05:18:57;;;;;;;17.13;7.00;;;;;;;;;;5007383;28;20045;-60
2022/12/13 05:21:22;;;;;;;13.73;6.10;;;;;;;;;;5007545;28;20124;-60
2022/12/13 05:23:47;;;;;;;15.87;6.60;;;;;;;;;;5001330;28;20030;-60
2022/12/13 05:26:12;;;;;;;14.23;6.03;;;;;;;;;;4989738;28;20049;-60
2022/12/13 05:28:37;;;;;;;16.27;7.17;;;;;;;;;;5001777;28;20029;-59
2022/12/13 05:31:09;;;;;;;17.50;6.87;;;;;;;;;;5005909;28;20026;-62
2022/12/13 05:33:35;;;;;;;17.40;7.45;;;;;;;;;;5002026;28;20387;-60
2022/12/13 05:36:00;;;;;;;16.53;6.87;;;;;;;;;;5001224;28;20030;-60
2022/12/13 05:38:25;;;;;;;16.53;6.37;;;;;;;;;;4999755;28;20461;-60
2022/12/13 05:40:51;;;;;;;17.73;6.57;;;;;;;;;;5000291;28;20025;-60
2022/12/13 05:43:16;;;;;;;16.90;6.93;;;;;;;;;;5010546;28;20025;-60
2022/12/13 05:45:41;;;;;;;17.90;6.30;;;;;;;;;;5007371;28;20548;-60
2022/12/13 05:48:07;;;;;;;16.50;6.50;;;;;;;;;;5003113;28;20034;-60
2022/12/13 05:50:32;;;;;;;22.88;7.95;;;;;;;;;;5002754;28;20025;-60
2022/12/13 05:52:58;;;;;;;16.95;7.03;;;;;;;;;;5003673;28;20029;-62
2022/12/13 05:55:23;;;;;;;20.23;7.70;;;;;;;;;;5009195;28;20160;-61
2022/12/13 05:57:48;;;;;;;20.20;7.87;;;;;;;;;;5002577;28;20026;-61
2022/12/13 06:00:13;;;;;;;19.55;7.20;;;;;;;;;;5003469;28;20419;-61
2022/12/13 06:02:40;;;;;;;19.08;7.22;;;;;;;;;;5003237;28;20036;-61
2022/12/13 06:05:05;;;;;;;18.30;7.28;;;;;;;;;;5005244;28;20026;-61
2022/12/13 06:07:31;;;;;;;19.00;6.72;;;;;;;;;;5005257;28;20472;-61
2022/12/13 06:09:56;;;;;;;18.08;7.18;;;;;;;;;;5004996;28;20025;-67
2022/12/13 06:12:21;;;;;;;18.87;7.27;;;;;;;;;;5000976;28;20226;-67
2022/12/13 06:14:47;;;;;;;18.95;6.72;;;;;;;;;;5003844;28;20073;-68
2022/12/13 06:17:12;;;;;;;17.53;6.63;;;;;;;;;;5005650;28;20029;-67
2022/12/13 06:19:37;;;;;;;18.70;7.28;;;;;;;;;;5003906;28;20068;-69
2022/12/13 06:22:02;;;;;;;18.30;7.10;;;;;;;;;;5006662;28;20427;-68
2022/12/13 06:24:27;;;;;;;17.10;6.60;;;;;;;;;;5007230;28;20121;-68
2022/12/13 06:26:52;;;;;;;21.73;8.00;;;;;;;;;;5004494;28;20374;-68
2022/12/13 06:29:19;;;;;;;18.37;7.00;;;;;;;;;;5009882;28;20025;-68
2022/12/13 06:31:44;;;;;;;22.05;8.25;;;;;;;;;;5013329;28;20022;-68
2022/12/13 06:34:09;;;;;;;18.63;7.33;;;;;;;;;;5013266;28;20623;-67
2022/12/13 06:36:34;;;;;;;26.40;8.20;;;;;;;;;;5011304;28;20026;-67
2022/12/13 06:39:06;;;;;;;18.77;7.68;;;;;;;;;;5012590;28;20737;-67
2022/12/13 06:41:32;;;;;;;19.70;7.93;;;;;;;;;;5013089;28;20400;-67
2022/12/13 06:43:57;;;;;;;23.30;9.50;;;;;;;;;;5013612;28;20053;-67
2022/12/13 06:46:22;;;;;;;17.87;7.23;;;;;;;;;;5013228;28;20037;-69
2022/12/13 06:48:48;;;;;;;22.00;7.97;;;;;;;;;;5012199;28;20025;-67
2022/12/13 06:51:13;;;;;;;21.00;7.90;;;;;;;;;;5012980;28;20026;-68
2022/12/13 06:53:39;;;;;;;24.20;8.63;;;;;;;;;;5009250;28;20487;-68
2022/12/13 06:56:09;;;;;;;21.48;8.57;;;;;;;;;;5005751;28;20535;-67
2022/12/13 06:58:34;;;;;;;23.05;8.35;;;;;;;;;;4999901;28;20137;-68
2022/12/13 07:01:04;;;;;;;21.02;8.27;;;;;;;;;;4993673;28;20097;-68
2022/12/13 07:03:30;;;;;;;18.70;8.02;;;;;;;;;;5004257;28;20033;-68
2022/12/13 07:05:56;;;;;;;18.98;8.00;;;;;;;;;;5013130;28;20125;-69
2022/12/13 07:08:21;;;;;;;23.20;8.07;;;;;;;;;;5010498;28;20026;-69
2022/12/13 07:10:46;;;;;;;23.93;8.90;;;;;;;;;;5011225;28;20851;-69
2022/12/13 07:13:11;;;;;;;24.97;9.07;;;;;;;;;;5009553;28;20463;-70
2022/12/13 07:15:37;;;;;;;24.53;9.30;;;;;;;;;;5011490;28;20079;-69
2022/12/13 07:18:02;;;;;;;23.88;8.68;;;;;;;;;;5012658;28;20465;-70
2022/12/13 07:20:27;;;;;;;23.23;7.57;;;;;;;;;;5009287;28;20347;-68
2022/12/13 07:23:21;;;;;;;23.17;8.47;;;;;;;;;;5003639;28;20567;-61
2022/12/13 07:25:52;;;;;;;20.90;7.53;;;;;;;;;;5009943;28;20496;-60
2022/12/13 07:28:18;;;;;;;24.48;8.02;;;;;;;;;;4993842;28;20021;-60
2022/12/13 07:30:43;;;;;;;24.08;8.48;;;;;;;;;;5006010;28;20018;-61
2022/12/13 07:33:09;;;;;;;23.50;7.77;;;;;;;;;;5012341;28;20018;-60
2022/12/13 07:35:34;;;;;;;17.40;6.80;;;;;;;;;;5012542;28;20469;-60
2022/12/13 07:37:59;;;;;;;19.23;8.23;;;;;;;;;;5012869;28;20445;-61
2022/12/13 07:40:24;;;;;;;21.90;8.33;;;;;;;;;;5012282;28;20029;-64
2022/12/13 07:42:53;;;;;;;20.77;8.50;;;;;;;;;;5009669;28;20109;-61
2022/12/13 07:45:18;;;;;;;21.83;8.05;;;;;;;;;;5012236;28;20073;-62
2022/12/13 07:47:44;;;;;;;26.48;10.07;;;;;;;;;;5012492;28;20053;-62
2022/12/13 07:50:10;;;;;;;31.77;12.13;;;;;;;;;;5012693;28;20036;-61
2022/12/13 07:52:35;;;;;;;29.20;11.52;;;;;;;;;;5010681;28;20491;-61
2022/12/13 07:55:01;;;;;;;27.38;10.32;;;;;;;;;;5012174;28;20053;-61
2022/12/13 07:57:26;;;;;;;22.60;8.77;;;;;;;;;;5012184;28;20480;-61
2022/12/13 07:59:51;;;;;;;23.23;8.93;;;;;;;;;;5011945;28;20030;-61
2022/12/13 08:02:17;;;;;;;22.42;7.90;;;;;;;;;;5009114;28;20096;-61
2022/12/13 08:04:42;;;;;;;24.05;9.20;;;;;;;;;;5011876;28;20029;-61
2022/12/13 08:07:07;;;;;;;20.83;8.02;;;;;;;;;;5012205;28;20546;-61
2022/12/13 08:09:33;;;;;;;21.17;8.17;;;;;;;;;;5011896;28;20022;-61
2022/12/13 08:11:58;;;;;;;20.87;9.10;;;;;;;;;;5011774;28;20029;-61
2022/12/13 08:14:23;;;;;;;18.83;8.03;;;;;;;;;;5010173;28;20107;-61
2022/12/13 08:16:48;;;;;;;18.93;7.30;;;;;;;;;;5012159;28;20037;-60
2022/12/13 08:19:13;;;;;;;19.73;7.70;;;;;;;;;;5011797;28;20072;-61
2022/12/13 08:21:39;;;;;;;18.75;7.00;;;;;;;;;;5009781;28;20377;-60
2022/12/13 08:24:05;;;;;;;20.85;7.43;;;;;;;;;;5010035;28;20056;-62
2022/12/13 08:26:30;;;;;;;18.13;6.80;;;;;;;;;;5011351;28;20009;-61
2022/12/13 08:28:55;;;;;;;18.80;7.23;;;;;;;;;;5011799;28;20028;-61
2022/12/13 08:31:20;;;;;;;18.67;7.30;;;;;;;;;;5011363;28;20018;-61
2022/12/13 08:33:46;;;;;;;23.47;7.63;;;;;;;;;;5011795;28;20109;-60
2022/12/13 08:36:14;;;;;;;16.98;6.38;;;;;;;;;;5010910;28;20022;-60
2022/12/13 08:38:39;;;;;;;18.52;6.82;;;;;;;;;;5011296;28;20445;-61
2022/12/13 08:41:05;;;;;;;17.63;7.17;;;;;;;;;;5009508;28;20054;-61
2022/12/13 08:43:30;;;;;;;18.63;7.60;;;;;;;;;;5011069;28;20010;-62
2022/12/13 08:45:55;;;;;;;20.13;8.00;;;;;;;;;;5008255;28;20022;-61
2022/12/13 08:48:20;;;;;;;21.27;8.07;;;;;;;;;;5011230;28;20022;-62
2022/12/13 08:50:45;;;;;;;20.60;8.60;;;;;;;;;;5011106;28;20425;-62
2022/12/13 08:53:11;;;;;;;20.57;8.37;;;;;;;;;;5010744;28;20432;-61
2022/12/13 08:55:36;;;;;;;22.77;8.27;;;;;;;;;;5008706;28;20026;-61
2022/12/13 08:58:07;;;;;;;19.90;8.87;;;;;;;;;;5011345;28;20488;-62
2022/12/13 09:00:33;;;;;;;20.75;8.05;;;;;;;;;;5010956;28;20148;-62
2022/12/13 09:02:58;;;;;;;21.02;8.80;;;;;;;;;;5011258;28;20076;-61
2022/12/13 09:05:24;;;;;;;23.67;8.97;;;;;;;;;;5011201;28;20185;-61
2022/12/13 09:07:53;;;;;;;23.90;9.13;;;;;;;;;;5009278;28;20033;-61
2022/12/13 09:10:18;;;;;;;20.88;7.85;;;;;;;;;;5010788;28;20399;-61
2022/12/13 09:12:43;;;;;;;23.67;9.40;;;;;;;;;;5010960;28;20040;-60
2022/12/13 09:15:09;;;;;;;19.30;7.67;;;;;;;;;;5010976;28;20052;-61
2022/12/13 09:17:34;;;;;;;19.50;7.53;;;;;;;;;;5009671;28;20042;-60
2022/12/13 09:19:59;;;;;;;19.63;7.90;;;;;;;;;;5010755;28;20054;-61
2022/12/13 09:22:24;;;;;;;19.17;7.70;;;;;;;;;;5010661;28;20025;-61
2022/12/13 09:24:50;;;;;;;22.75;7.70;;;;;;;;;;5008663;28;20041;-61
2022/12/13 09:27:15;;;;;;;20.48;7.07;;;;;;;;;;5009175;28;20022;-61
2022/12/13 09:29:40;;;;;;;21.73;7.50;;;;;;;;;;5010060;28;20469;-62
2022/12/13 09:32:05;;;;;;;17.37;7.10;;;;;;;;;;5010635;28;20026;-61
2022/12/13 09:34:31;;;;;;;18.83;7.10;;;;;;;;;;5010652;28;20533;-61
2022/12/13 09:36:57;;;;;;;19.02;6.93;;;;;;;;;;5010741;28;20076;-61
2022/12/13 09:39:22;;;;;;;19.25;7.05;;;;;;;;;;5008106;28;20038;-61
2022/12/13 09:41:49;;;;;;;19.80;6.43;;;;;;;;;;5010501;28;20026;-62
2022/12/13 09:44:22;;;;;;;18.25;6.90;;;;;;;;;;5009691;28;20542;-61
2022/12/13 09:46:48;;;;;;;17.85;7.22;;;;;;;;;;5010628;28;20428;-61
2022/12/13 09:49:20;;;;;;;20.98;7.07;;;;;;;;;;5010428;28;20022;-61
2022/12/13 09:51:49;;;;;;;16.23;6.18;;;;;;;;;;5010361;28;20083;-61
2022/12/13 09:54:21;;;;;;;18.77;6.82;;;;;;;;;;5010315;28;20396;-60
2022/12/13 09:56:49;;;;;;;17.95;6.72;;;;;;;;;;5008909;28;20443;-60
2022/12/13 09:59:15;;;;;;;17.40;7.30;;;;;;;;;;5010510;28;20125;-60
2022/12/13 10:01:40;;;;;;;20.02;7.88;;;;;;;;;;5009595;28;20492;-60
2022/12/13 10:04:08;;;;;;;17.73;6.90;;;;;;;;;;5010411;28;20018;-60
2022/12/13 10:06:35;;;;;;;17.10;6.68;;;;;;;;;;5010848;28;20447;-60
2022/12/13 10:09:00;;;;;;;19.52;6.88;;;;;;;;;;5014236;28;20018;-59
2022/12/13 10:11:26;;;;;;;15.77;7.13;;;;;;;;;;5014019;28;20097;-59
2022/12/13 10:14:01;;;;;;;18.08;6.78;;;;;;;;;;5013764;28;20042;-61
2022/12/13 10:16:29;;;;;;;16.98;6.35;;;;;;;;;;5012275;28;20021;-61
2022/12/13 10:18:55;;;;;;;15.57;6.78;;;;;;;;;;5014172;28;20018;-60
2022/12/13 10:21:25;;;;;;;14.80;5.93;;;;;;;;;;5014084;28;20052;-61
2022/12/13 10:23:50;;;;;;;16.40;6.95;;;;;;;;;;5014107;28;20022;-60
2022/12/13 10:26:15;;;;;;;15.53;6.23;;;;;;;;;;5012537;28;20469;-61
2022/12/13 10:28:41;;;;;;;15.83;6.00;;;;;;;;;;5013776;28;20018;-60
2022/12/13 10:31:06;;;;;;;16.83;6.73;;;;;;;;;;5013804;28;20468;-61
2022/12/13 10:33:35;;;;;;;16.30;6.45;;;;;;;;;;5011217;28;21019;-60
2022/12/13 10:36:27;;;;;;;15.50;6.28;;;;;;;;;;5027751;28;20376;-60
2022/12/13 10:38:52;;;;;;;17.33;7.10;;;;;;;;;;5011657;28;20096;-60
2022/12/13 10:41:25;;;;;;;14.97;6.13;;;;;;;;;;5013414;28;20042;-61
2022/12/13 10:44:14;;;;;;;17.35;6.85;;;;;;;;;;5013589;28;20029;-61
2022/12/13 10:46:41;;;;;;;15.63;6.32;;;;;;;;;;5011370;28;20037;-60
2022/12/13 10:49:17;;;;;;;19.35;7.53;;;;;;;;;;5013595;28;20045;-60
2022/12/13 10:51:42;;;;;;;18.10;7.55;;;;;;;;;;5012991;28;20021;-61
2022/12/13 10:54:14;;;;;;;19.10;7.40;;;;;;;;;;5013420;28;20018;-61
2022/12/13 10:56:44;;;;;;;15.93;7.03;;;;;;;;;;5011249;28;20045;-60
2022/12/13 10:59:10;;;;;;;16.52;6.43;;;;;;;;;;5013344;28;20113;-60
2022/12/13 11:01:35;;;;;;;17.73;7.13;;;;;;;;;;5013015;28;20017;-60
2022/12/13 11:04:02;;;;;;;16.20;6.60;;;;;;;;;;5013299;28;20121;-60
2022/12/13 11:06:43;;;;;;;17.23;7.32;;;;;;;;;;5012117;28;20460;-61
2022/12/13 11:09:15;;;;;;;17.00;7.40;;;;;;;;;;5013265;28;20076;-61
2022/12/13 11:11:42;;;;;;;16.52;7.45;;;;;;;;;;5012806;28;20029;-60
2022/12/13 11:14:15;;;;;;;18.35;7.22;;;;;;;;;;5012794;28;20539;-60
2022/12/13 11:16:40;;;;;;;19.15;7.28;;;;;;;;;;5010425;28;20112;-61
2022/12/13 11:19:17;;;;;;;14.17;6.87;;;;;;;;;;5012659;28;20026;-61
2022/12/13 11:21:45;;;;;;;15.02;6.50;;;;;;;;;;5012469;28;20417;-60
2022/12/13 11:24:17;;;;;;;18.08;6.82;;;;;;;;;;5009786;28;20013;-61
2022/12/13 11:26:44;;;;;;;15.43;6.65;;;;;;;;;;5011498;28;20748;-61
2022/12/13 11:29:09;;;;;;;;;;;;;;;;;;5013265;28;20037;-59
2022/12/13 11:31:45;;;;;;;13.45;6.28;;;;;;;;;;5012236;28;19905;-61
2022/12/13 11:34:19;;;;;;;14.40;5.68;;;;;;;;;;5012355;28;20045;-60
2022/12/13 11:36:55;;;;;;;14.68;6.35;;;;;;;;;;5011051;28;20165;-60
2022/12/13 11:39:27;;;;;;;16.27;6.70;;;;;;;;;;5012539;28;20076;-60
2022/12/13 11:41:57;;;;;;;13.82;5.80;;;;;;;;;;5012148;28;20029;-60
2022/12/13 11:44:25;;;;;;;13.98;6.15;;;;;;;;;;5011871;28;20480;-59
2022/12/13 11:46:50;;;;;;;12.20;5.32;;;;;;;;;;5010738;28;20452;-60
2022/12/13 11:49:25;;;;;;;12.55;5.38;;;;;;;;;;5012386;28;20038;-60
2022/12/13 11:51:56;;;;;;;15.50;5.97;;;;;;;;;;5012014;28;20022;-60
2022/12/13 11:54:33;;;;;;;15.20;5.97;;;;;;;;;;5012162;28;20528;-60
2022/12/13 11:57:03;;;;;;;13.57;6.05;;;;;;;;;;5011559;28;20037;-60
2022/12/13 11:59:41;;;;;;;15.13;6.32;;;;;;;;;;5012273;28;20384;-60
2022/12/13 12:02:23;;;;;;;16.02;6.05;;;;;;;;;;5012106;28;20053;-60
2022/12/13 12:04:50;;;;;;;13.73;5.45;;;;;;;;;;5011962;28;20511;-60
2022/12/13 12:07:20;;;;;;;14.60;5.97;;;;;;;;;;5010322;28;20029;-61
2022/12/13 12:09:50;;;;;;;15.27;6.53;;;;;;;;;;5011534;28;20024;-61
2022/12/13 12:12:22;;;;;;;13.55;5.80;;;;;;;;;;5011609;28;20045;-61
2022/12/13 12:14:52;;;;;;;14.27;6.18;;;;;;;;;;5011800;28;20057;-62
2022/12/13 12:17:20;;;;;;;16.45;6.07;;;;;;;;;;5010049;28;20018;-61
2022/12/13 12:19:47;;;;;;;15.05;5.50;;;;;;;;;;5011649;28;20549;-62
2022/12/13 12:22:12;;;;;;;;;;;;;;;;;;5011751;28;20018;-61
2022/12/13 12:24:56;;;;;;;14.90;5.88;;;;;;;;;;5011360;28;19932;-61
2022/12/13 12:27:24;;;;;;;13.77;6.10;;;;;;;;;;5010877;28;20026;-61
2022/12/13 12:29:52;;;;;;;16.73;6.18;;;;;;;;;;5011201;28;20029;-61
2022/12/13 12:32:32;;;;;;;13.82;5.55;;;;;;;;;;5011363;28;20088;-61
2022/12/13 12:34:58;;;;;;;16.60;6.32;;;;;;;;;;5011195;28;20025;-61
2022/12/13 12:37:28;;;;;;;12.40;5.70;;;;;;;;;;5011376;28;20037;-61
2022/12/13 12:40:00;;;;;;;15.27;5.80;;;;;;;;;;5008645;28;20041;-61
2022/12/13 12:42:32;;;;;;;12.27;5.47;;;;;;;;;;5011265;28;20533;-61
2022/12/13 12:45:16;;;;;;;13.80;6.00;;;;;;;;;;5010745;28;20363;-61
2022/12/13 12:48:04;;;;;;;14.77;6.30;;;;;;;;;;5010986;28;20084;-61
2022/12/13 12:50:32;;;;;;;13.75;5.68;;;;;;;;;;5009946;28;20558;-61
2022/12/13 12:52:57;;;;;;;14.10;5.72;;;;;;;;;;5011250;28;20038;-60
2022/12/13 12:55:29;;;;;;;12.15;5.30;;;;;;;;;;5010770;28;20032;-60
2022/12/13 12:58:14;;;;;;;12.77;5.78;;;;;;;;;;5010949;28;20018;-60
2022/12/13 13:01:02;;;;;;;12.52;5.60;;;;;;;;;;5008639;28;20488;-60
2022/12/13 13:03:29;;;;;;;13.40;5.57;;;;;;;;;;4982304;28;20038;-61
2022/12/13 13:06:00;;;;;;;12.70;5.53;;;;;;;;;;5010711;28;20022;-61
2022/12/13 13:08:34;;;;;;;12.13;5.28;;;;;;;;;;5010752;28;20445;-61
2022/12/13 13:11:00;;;;;;;10.80;4.68;;;;;;;;;;5009929;28;20033;-60
2022/12/13 13:13:31;;;;;;;12.80;5.40;;;;;;;;;;5010284;28;20033;-60
2022/12/13 13:15:56;;;;;;;11.68;5.05;;;;;;;;;;5010724;28;20057;-60
2022/12/13 13:18:40;;;;;;;11.53;4.80;;;;;;;;;;5010551;28;20049;-59
2022/12/13 13:21:24;;;;;;;12.77;4.85;;;;;;;;;;5008759;28;20109;-62
2022/12/13 13:24:05;;;;;;;11.43;5.25;;;;;;;;;;5008428;28;20077;-60
2022/12/13 13:26:31;;;;;;;11.20;4.38;;;;;;;;;;5010471;28;20056;-60
2022/12/13 13:29:15;;;;;;;11.57;4.47;;;;;;;;;;5010570;28;20145;-60
2022/12/13 13:31:52;;;;;;;11.05;4.53;;;;;;;;;;5008660;28;20030;-60
2022/12/13 13:34:25;;;;;;;12.00;4.47;;;;;;;;;;5010402;28;20413;-60
2022/12/13 13:36:55;;;;;;;12.30;4.38;;;;;;;;;;5010124;28;20492;-61
2022/12/13 13:39:26;;;;;;;11.48;4.63;;;;;;;;;;5010040;28;20547;-62
2022/12/13 13:42:06;;;;;;;9.27;3.95;;;;;;;;;;5007363;28;20022;-61
2022/12/13 13:44:32;;;;;;;9.93;4.22;;;;;;;;;;5010235;28;20432;-61
2022/12/13 13:47:16;;;;;;;11.18;4.15;;;;;;;;;;5010320;28;20026;-60
2022/12/13 13:49:59;;;;;;;10.65;4.40;;;;;;;;;;5010403;28;20052;-60
2022/12/13 13:52:33;;;;;;;12.20;4.75;;;;;;;;;;5008558;28;20036;-61
2022/12/13 13:54:58;;;;;;;10.90;4.40;;;;;;;;;;5010673;28;20022;-61
2022/12/13 13:57:45;;;;;;;11.38;4.75;;;;;;;;;;5010229;28;20029;-61
2022/12/13 14:00:20;;;;;;;10.90;4.50;;;;;;;;;;5010464;28;20046;-61
2022/12/13 14:03:04;;;;;;;11.70;5.03;;;;;;;;;;5008536;28;20084;-61
2022/12/13 14:05:39;;;;;;;11.10;4.47;;;;;;;;;;5010056;28;20041;-61
2022/12/13 14:08:16;;;;;;;11.00;4.40;;;;;;;;;;5010720;28;20122;-61
2022/12/13 14:11:00;;;;;;;8.55;3.72;;;;;;;;;;5010171;28;20022;-61
2022/12/13 14:13:44;;;;;;;11.95;4.40;;;;;;;;;;5008314;28;20029;-62
2022/12/13 14:16:09;;;;;;;10.10;4.15;;;;;;;;;;5008102;28;20076;-61
2022/12/13 14:18:53;;;;;;;11.17;4.97;;;;;;;;;;5006683;28;20049;-60
2022/12/13 14:21:23;;;;;;;14.50;4.78;;;;;;;;;;5007489;28;20104;-61
2022/12/13 14:23:52;;;;;;;10.82;4.70;;;;;;;;;;5008694;28;20116;-60
2022/12/13 14:26:17;;;;;;;9.63;4.25;;;;;;;;;;5010254;28;20374;-61
2022/12/13 14:28:50;;;;;;;10.73;4.73;;;;;;;;;;5006616;28;20029;-61
2022/12/13 14:31:22;;;;;;;13.00;5.03;;;;;;;;;;5001888;28;20029;-61
2022/12/13 14:33:50;;;;;;;10.20;4.50;;;;;;;;;;5005561;28;20645;-60
2022/12/13 14:36:17;;;;;;;10.45;4.55;;;;;;;;;;5007168;28;20088;-61
2022/12/13 14:38:42;;;;;;;13.13;5.07;;;;;;;;;;5004766;28;20040;-63
2022/12/13 14:41:16;;;;;;;12.77;5.15;;;;;;;;;;5003877;28;20385;-60